sensor_id;sensor_type;location;lat;lon;timestamp;P1;durP1;ratioP1;P2;durP2;ratioP2
66609;SDS011;53468;48.276;14.416;2022-07-04T01:17:43;3.70;;;2.42;;
66609;SDS011;53468;48.276;14.416;2022-07-04T01:36:56;5.22;;;2.90;;
66609;SDS011;53468;48.276;14.416;2022-07-04T02:08:39;4.93;;;2.88;;
66609;SDS011;53468;48.276;14.416;2022-07-04T02:28:00;3.50;;;2.40;;
66609;SDS011;53468;48.276;14.416;2022-07-04T02:34:05;3.40;;;2.58;;
66609;SDS011;53468;48.276;14.416;2022-07-04T02:53:02;3.67;;;3.13;;
66609;SDS011;53468;48.276;14.416;2022-07-04T03:05:16;3.42;;;2.72;;
66609;SDS011;53468;48.276;14.416;2022-07-04T03:11:47;4.35;;;2.58;;
66609;SDS011;53468;48.276;14.416;2022-07-04T03:24:56;3.08;;;2.33;;
66609;SDS011;53468;48.276;14.416;2022-07-04T03:31:40;5.43;;;2.78;;
66609;SDS011;53468;48.276;14.416;2022-07-04T03:44:02;7.28;;;3.13;;
66609;SDS011;53468;48.276;14.416;2022-07-04T03:50:30;4.68;;;2.88;;
66609;SDS011;53468;48.276;14.416;2022-07-04T04:02:44;5.22;;;3.13;;
66609;SDS011;53468;48.276;14.416;2022-07-04T04:16:00;12.23;;;4.40;;
66609;SDS011;53468;48.276;14.416;2022-07-04T04:22:07;7.20;;;4.60;;
66609;SDS011;53468;48.276;14.416;2022-07-04T04:28:16;14.18;;;5.03;;
66609;SDS011;53468;48.276;14.416;2022-07-04T04:40:46;7.97;;;5.28;;
66609;SDS011;53468;48.276;14.416;2022-07-04T05:29:06;10.13;;;4.63;;
66609;SDS011;53468;48.276;14.416;2022-07-04T05:40:23;7.68;;;4.53;;
66609;SDS011;53468;48.276;14.416;2022-07-04T05:45:59;6.35;;;4.63;;
66609;SDS011;53468;48.276;14.416;2022-07-04T05:57:42;10.32;;;4.90;;
66609;SDS011;53468;48.276;14.416;2022-07-04T06:03:36;14.48;;;5.60;;
66609;SDS011;53468;48.276;14.416;2022-07-04T06:09:09;10.80;;;5.63;;
66609;SDS011;53468;48.276;14.416;2022-07-04T06:14:44;8.05;;;4.30;;
66609;SDS011;53468;48.276;14.416;2022-07-04T06:20:19;6.93;;;3.72;;
66609;SDS011;53468;48.276;14.416;2022-07-04T06:25:51;9.40;;;3.67;;
66609;SDS011;53468;48.276;14.416;2022-07-04T06:31:26;7.35;;;3.95;;
66609;SDS011;53468;48.276;14.416;2022-07-04T06:37:01;5.35;;;2.97;;
66609;SDS011;53468;48.276;14.416;2022-07-04T07:16:43;8.43;;;4.22;;
66609;SDS011;53468;48.276;14.416;2022-07-04T07:22:16;5.30;;;3.83;;
66609;SDS011;53468;48.276;14.416;2022-07-04T07:27:50;13.90;;;5.00;;
66609;SDS011;53468;48.276;14.416;2022-07-04T07:33:47;6.75;;;4.45;;
66609;SDS011;53468;48.276;14.416;2022-07-04T07:39:26;5.00;;;3.83;;
66609;SDS011;53468;48.276;14.416;2022-07-04T07:45:00;7.57;;;3.80;;
66609;SDS011;53468;48.276;14.416;2022-07-04T07:56:54;3.60;;;2.65;;
66609;SDS011;53468;48.276;14.416;2022-07-04T08:08:54;5.20;;;1.92;;
66609;SDS011;53468;48.276;14.416;2022-07-04T08:14:37;3.35;;;1.90;;
66609;SDS011;53468;48.276;14.416;2022-07-04T08:20:12;5.35;;;2.63;;
66609;SDS011;53468;48.276;14.416;2022-07-04T08:25:44;6.95;;;3.42;;
66609;SDS011;53468;48.276;14.416;2022-07-04T08:31:19;6.47;;;2.90;;
66609;SDS011;53468;48.276;14.416;2022-07-04T08:36:52;8.80;;;3.95;;
66609;SDS011;53468;48.276;14.416;2022-07-04T08:42:25;12.35;;;4.90;;
66609;SDS011;53468;48.276;14.416;2022-07-04T08:48:05;5.32;;;3.28;;
66609;SDS011;53468;48.276;14.416;2022-07-04T08:53:41;8.65;;;4.28;;
66609;SDS011;53468;48.276;14.416;2022-07-04T08:59:24;4.63;;;2.70;;
66609;SDS011;53468;48.276;14.416;2022-07-04T09:05:02;3.17;;;2.25;;
66609;SDS011;53468;48.276;14.416;2022-07-04T09:10:36;3.45;;;2.33;;
66609;SDS011;53468;48.276;14.416;2022-07-04T09:16:09;5.10;;;2.72;;
66609;SDS011;53468;48.276;14.416;2022-07-04T09:21:45;4.97;;;2.13;;
66609;SDS011;53468;48.276;14.416;2022-07-04T09:27:31;3.63;;;1.98;;
66609;SDS011;53468;48.276;14.416;2022-07-04T09:33:07;6.45;;;2.00;;
66609;SDS011;53468;48.276;14.416;2022-07-04T09:38:42;1.83;;;1.20;;
66609;SDS011;53468;48.276;14.416;2022-07-04T09:44:15;7.10;;;1.50;;
66609;SDS011;53468;48.276;14.416;2022-07-04T09:49:57;5.60;;;1.73;;
66609;SDS011;53468;48.276;14.416;2022-07-04T09:55:32;4.40;;;1.75;;
66609;SDS011;53468;48.276;14.416;2022-07-04T10:01:05;5.43;;;1.70;;
66609;SDS011;53468;48.276;14.416;2022-07-04T10:06:38;4.18;;;2.00;;
66609;SDS011;53468;48.276;14.416;2022-07-04T10:12:25;4.30;;;1.75;;
66609;SDS011;53468;48.276;14.416;2022-07-04T10:17:58;4.88;;;1.77;;
66609;SDS011;53468;48.276;14.416;2022-07-04T10:23:32;2.65;;;1.55;;
66609;SDS011;53468;48.276;14.416;2022-07-04T10:29:08;3.83;;;1.98;;
66609;SDS011;53468;48.276;14.416;2022-07-04T10:34:43;3.40;;;1.63;;
66609;SDS011;53468;48.276;14.416;2022-07-04T10:46:24;1.90;;;1.30;;
66609;SDS011;53468;48.276;14.416;2022-07-04T10:52:09;1.95;;;1.20;;
66609;SDS011;53468;48.276;14.416;2022-07-04T10:57:43;2.17;;;1.38;;
66609;SDS011;53468;48.276;14.416;2022-07-04T11:37:42;2.67;;;1.63;;
66609;SDS011;53468;48.276;14.416;2022-07-04T11:43:24;1.63;;;1.20;;
66609;SDS011;53468;48.276;14.416;2022-07-04T11:49:13;2.33;;;1.10;;
66609;SDS011;53468;48.276;14.416;2022-07-04T11:54:50;2.35;;;1.25;;
66609;SDS011;53468;48.276;14.416;2022-07-04T12:00:25;2.47;;;1.35;;
66609;SDS011;53468;48.276;14.416;2022-07-04T12:06:02;3.80;;;1.20;;
66609;SDS011;53468;48.276;14.416;2022-07-04T12:11:51;3.08;;;1.60;;
66609;SDS011;53468;48.276;14.416;2022-07-04T12:17:33;1.45;;;0.95;;
66609;SDS011;53468;48.276;14.416;2022-07-04T12:23:08;1.60;;;1.10;;
66609;SDS011;53468;48.276;14.416;2022-07-04T12:28:45;2.78;;;1.40;;
66609;SDS011;53468;48.276;14.416;2022-07-04T12:34:21;2.17;;;1.58;;
66609;SDS011;53468;48.276;14.416;2022-07-04T12:39:56;2.28;;;1.10;;
66609;SDS011;53468;48.276;14.416;2022-07-04T12:45:42;2.08;;;1.30;;
66609;SDS011;53468;48.276;14.416;2022-07-04T12:51:17;2.13;;;1.50;;
66609;SDS011;53468;48.276;14.416;2022-07-04T12:56:51;2.63;;;1.48;;
66609;SDS011;53468;48.276;14.416;2022-07-04T13:02:25;4.05;;;1.70;;
66609;SDS011;53468;48.276;14.416;2022-07-04T13:07:58;2.55;;;1.55;;
66609;SDS011;53468;48.276;14.416;2022-07-04T13:13:31;2.22;;;1.20;;
66609;SDS011;53468;48.276;14.416;2022-07-04T13:19:05;1.95;;;1.50;;
66609;SDS011;53468;48.276;14.416;2022-07-04T13:24:38;2.63;;;1.48;;
66609;SDS011;53468;48.276;14.416;2022-07-04T13:30:12;2.33;;;1.23;;
66609;SDS011;53468;48.276;14.416;2022-07-04T13:35:48;1.80;;;1.45;;
66609;SDS011;53468;48.276;14.416;2022-07-04T13:41:22;2.92;;;1.52;;
66609;SDS011;53468;48.276;14.416;2022-07-04T13:46:55;2.35;;;1.50;;
66609;SDS011;53468;48.276;14.416;2022-07-04T13:52:31;2.55;;;1.63;;
66609;SDS011;53468;48.276;14.416;2022-07-04T13:58:04;2.00;;;1.27;;
66609;SDS011;53468;48.276;14.416;2022-07-04T14:03:37;1.92;;;1.40;;
66609;SDS011;53468;48.276;14.416;2022-07-04T14:09:14;5.53;;;1.90;;
66609;SDS011;53468;48.276;14.416;2022-07-04T14:14:46;2.05;;;1.40;;
66609;SDS011;53468;48.276;14.416;2022-07-04T14:20:20;3.33;;;1.73;;
66609;SDS011;53468;48.276;14.416;2022-07-04T14:25:56;3.15;;;1.95;;
66609;SDS011;53468;48.276;14.416;2022-07-04T14:31:29;3.60;;;1.70;;
66609;SDS011;53468;48.276;14.416;2022-07-04T14:37:05;6.22;;;2.08;;
66609;SDS011;53468;48.276;14.416;2022-07-04T14:42:49;7.68;;;3.47;;
66609;SDS011;53468;48.276;14.416;2022-07-04T14:48:22;13.48;;;2.22;;
66609;SDS011;53468;48.276;14.416;2022-07-04T14:53:55;7.38;;;2.08;;
66609;SDS011;53468;48.276;14.416;2022-07-04T14:59:30;5.55;;;2.92;;
66609;SDS011;53468;48.276;14.416;2022-07-04T15:05:06;3.00;;;1.92;;
66609;SDS011;53468;48.276;14.416;2022-07-04T15:10:39;6.75;;;2.63;;
66609;SDS011;53468;48.276;14.416;2022-07-04T15:16:13;9.35;;;2.17;;
66609;SDS011;53468;48.276;14.416;2022-07-04T15:21:48;5.00;;;2.45;;
66609;SDS011;53468;48.276;14.416;2022-07-04T15:27:38;6.00;;;2.55;;
66609;SDS011;53468;48.276;14.416;2022-07-04T15:33:30;4.22;;;2.10;;
66609;SDS011;53468;48.276;14.416;2022-07-04T15:39:04;3.05;;;1.83;;
66609;SDS011;53468;48.276;14.416;2022-07-04T15:44:38;5.15;;;2.60;;
66609;SDS011;53468;48.276;14.416;2022-07-04T15:50:15;3.00;;;1.95;;
66609;SDS011;53468;48.276;14.416;2022-07-04T15:55:47;2.60;;;2.15;;
66609;SDS011;53468;48.276;14.416;2022-07-04T16:01:27;2.45;;;1.88;;
66609;SDS011;53468;48.276;14.416;2022-07-04T16:07:26;3.38;;;1.60;;
66609;SDS011;53468;48.276;14.416;2022-07-04T16:13:02;3.13;;;2.25;;
66609;SDS011;53468;48.276;14.416;2022-07-04T16:18:41;3.25;;;1.90;;
66609;SDS011;53468;48.276;14.416;2022-07-04T16:24:30;4.25;;;2.10;;
66609;SDS011;53468;48.276;14.416;2022-07-04T16:30:03;3.20;;;2.00;;
66609;SDS011;53468;48.276;14.416;2022-07-04T16:36:24;3.55;;;2.20;;
66609;SDS011;53468;48.276;14.416;2022-07-04T16:42:02;5.22;;;2.70;;
66609;SDS011;53468;48.276;14.416;2022-07-04T16:47:38;5.40;;;2.15;;
66609;SDS011;53468;48.276;14.416;2022-07-04T16:53:14;5.15;;;1.88;;
66609;SDS011;53468;48.276;14.416;2022-07-04T17:11:54;3.42;;;1.50;;
66609;SDS011;53468;48.276;14.416;2022-07-04T17:17:56;4.23;;;1.70;;
66609;SDS011;53468;48.276;14.416;2022-07-04T17:24:07;1.67;;;1.30;;
66609;SDS011;53468;48.276;14.416;2022-07-04T17:42:25;6.30;;;1.70;;
66609;SDS011;53468;48.276;14.416;2022-07-04T17:48:05;2.75;;;1.65;;
66609;SDS011;53468;48.276;14.416;2022-07-04T18:07:31;3.42;;;2.10;;
66609;SDS011;53468;48.276;14.416;2022-07-04T18:13:08;3.22;;;2.13;;
66609;SDS011;53468;48.276;14.416;2022-07-04T18:18:40;4.82;;;2.10;;
66609;SDS011;53468;48.276;14.416;2022-07-04T18:24:14;4.10;;;2.03;;
66609;SDS011;53468;48.276;14.416;2022-07-04T18:29:47;4.30;;;1.90;;
66609;SDS011;53468;48.276;14.416;2022-07-04T18:35:22;3.53;;;2.20;;
66609;SDS011;53468;48.276;14.416;2022-07-04T18:47:18;4.70;;;1.88;;
66609;SDS011;53468;48.276;14.416;2022-07-04T19:32:41;4.25;;;2.60;;
66609;SDS011;53468;48.276;14.416;2022-07-04T19:38:32;3.72;;;2.17;;
66609;SDS011;53468;48.276;14.416;2022-07-04T19:50:57;3.67;;;2.15;;
66609;SDS011;53468;48.276;14.416;2022-07-04T19:56:39;5.28;;;2.70;;
66609;SDS011;53468;48.276;14.416;2022-07-04T20:02:29;3.08;;;2.30;;
66609;SDS011;53468;48.276;14.416;2022-07-04T20:09:03;3.45;;;2.95;;
66609;SDS011;53468;48.276;14.416;2022-07-04T20:14:47;4.18;;;3.10;;
66609;SDS011;53468;48.276;14.416;2022-07-04T21:32:22;4.50;;;2.95;;
66609;SDS011;53468;48.276;14.416;2022-07-04T21:39:10;5.35;;;2.83;;
66609;SDS011;53468;48.276;14.416;2022-07-04T21:45:42;5.38;;;3.00;;
66609;SDS011;53468;48.276;14.416;2022-07-04T21:58:25;6.20;;;3.22;;
66609;SDS011;53468;48.276;14.416;2022-07-04T22:04:41;3.47;;;2.87;;
66609;SDS011;53468;48.276;14.416;2022-07-04T22:10:25;4.28;;;3.72;;
66609;SDS011;53468;48.276;14.416;2022-07-04T22:16:04;5.63;;;3.33;;
66609;SDS011;53468;48.276;14.416;2022-07-04T22:22:16;5.40;;;3.00;;
66609;SDS011;53468;48.276;14.416;2022-07-04T22:27:59;4.60;;;3.28;;
66609;SDS011;53468;48.276;14.416;2022-07-04T22:33:48;5.57;;;3.20;;
66609;SDS011;53468;48.276;14.416;2022-07-04T22:39:24;6.35;;;3.63;;
66609;SDS011;53468;48.276;14.416;2022-07-04T22:45:02;4.43;;;3.10;;
66609;SDS011;53468;48.276;14.416;2022-07-04T22:51:20;5.50;;;3.50;;
66609;SDS011;53468;48.276;14.416;2022-07-04T22:57:01;4.55;;;3.38;;
66609;SDS011;53468;48.276;14.416;2022-07-04T23:02:49;5.25;;;4.03;;
66609;SDS011;53468;48.276;14.416;2022-07-04T23:09:10;4.15;;;3.17;;
66609;SDS011;53468;48.276;14.416;2022-07-04T23:14:49;6.35;;;3.67;;
66609;SDS011;53468;48.276;14.416;2022-07-04T23:20:52;6.60;;;3.33;;
66609;SDS011;53468;48.276;14.416;2022-07-04T23:26:35;4.70;;;3.60;;
66609;SDS011;53468;48.276;14.416;2022-07-04T23:32:18;5.70;;;3.28;;
66609;SDS011;53468;48.276;14.416;2022-07-04T23:37:59;5.78;;;3.60;;
66609;SDS011;53468;48.276;14.416;2022-07-04T23:43:58;6.47;;;3.97;;
66609;SDS011;53468;48.276;14.416;2022-07-04T23:49:40;4.88;;;3.75;;
66609;SDS011;53468;48.276;14.416;2022-07-04T23:55:24;6.75;;;4.18;;
